Time;durP1;ratioP1;P1;durP2;ratioP2;P2;SDS_P1;SDS_P2;PMS_P1;PMS_P2;Temp;Humidity;BMP_temperature;BMP_pressure;BME280_temperature;BME280_humidity;BME280_pressure;Samples;Min_cycle;Max_cycle;Signal;HPM_P1;HPM_P2
2022/01/04 00:00:15;;;;;;;5.25;1.60;;;;;;;6.73;100.00;92199.03;2071732;28;20541;-84
2022/01/04 00:01:16;;;;;;;2.88;1.83;;;;;;;6.96;100.00;92200.78;2067780;28;20029;-85
2022/01/04 00:02:17;;;;;;;2.50;1.80;;;;;;;6.73;100.00;92201.69;2083951;28;20391;-85
2022/01/04 00:03:18;;;;;;;1.60;1.50;;;;;;;6.61;100.00;92193.63;2081856;28;20085;-85
2022/01/04 00:04:21;;;;;;;2.42;1.77;;;;;;;6.59;100.00;92191.38;2095364;28;20028;-85
2022/01/04 00:05:22;;;;;;;1.75;1.58;;;;;;;6.48;100.00;92193.50;2084569;28;20044;-84
2022/01/04 00:06:23;;;;;;;3.70;1.90;;;;;;;6.63;100.00;92191.28;2078554;28;20025;-86
2022/01/04 00:07:24;;;;;;;3.15;1.70;;;;;;;6.75;100.00;92193.31;2076548;28;20075;-85
2022/01/04 00:08:27;;;;;;;3.17;1.70;;;;;;;6.62;100.00;92189.81;2086442;28;20025;-84
2022/01/04 00:09:28;;;;;;;2.83;1.50;;;;;;;6.62;100.00;92182.56;2077577;28;20029;-85
2022/01/04 00:10:29;;;;;;;3.63;1.90;;;;;;;6.58;100.00;92187.22;2076790;28;20042;-85
2022/01/04 00:14:15;;;;;;;2.17;1.65;;;;;;;6.66;100.00;92177.19;2076148;28;20056;-85
2022/01/04 00:15:16;;;;;;;5.20;1.92;;;;;;;6.70;100.00;92178.63;2065109;28;20106;-85
2022/01/04 00:16:17;;;;;;;1.60;1.50;;;;;;;6.63;100.00;92168.16;2065380;28;20046;-85
2022/01/04 00:17:18;;;;;;;2.90;1.60;;;;;;;6.93;100.00;92169.72;2069966;28;20030;-85
2022/01/04 00:18:20;;;;;;;1.73;1.63;;;;;;;6.86;100.00;92161.22;2073342;28;20026;-85
2022/01/04 00:19:22;;;;;;;3.25;1.83;;;;;;;6.87;100.00;92176.72;2072770;28;20033;-86
2022/01/04 00:20:23;;;;;;;2.75;1.20;;;;;;;6.73;100.00;92161.13;2073615;28;20045;-85
2022/01/04 00:21:24;;;;;;;2.20;1.70;;;;;;;6.87;100.00;92166.09;2073368;28;20022;-85
2022/01/04 00:22:25;;;;;;;1.50;1.30;;;;;;;6.94;100.00;92165.94;2077264;28;20048;-85
2022/01/04 00:23:27;;;;;;;2.63;1.50;;;;;;;6.66;100.00;92163.91;2069972;28;20026;-86
2022/01/04 00:24:27;;;;;;;1.42;1.33;;;;;;;6.60;100.00;92165.59;2065253;28;20026;-86
2022/01/04 00:25:31;;;;;;;2.08;1.30;;;;;;;6.48;100.00;92157.09;2077054;28;20155;-87
2022/01/04 00:26:32;;;;;;;3.17;1.52;;;;;;;6.54;100.00;92170.63;2077724;28;20018;-85
2022/01/04 00:27:35;;;;;;;2.58;1.52;;;;;;;6.76;100.00;92158.38;2077193;28;20057;-84
2022/01/04 00:28:36;;;;;;;1.55;1.40;;;;;;;6.68;100.00;92158.97;2076464;28;20039;-84
2022/01/04 00:29:37;;;;;;;3.33;1.60;;;;;;;6.58;100.00;92158.00;2073171;28;20029;-86
2022/01/04 00:30:39;;;;;;;3.00;1.40;;;;;;;6.50;100.00;92146.81;2073144;28;20030;-85
2022/01/04 00:31:40;;;;;;;3.05;1.90;;;;;;;6.45;100.00;92134.06;2081667;28;20355;-86
2022/01/04 00:32:42;;;;;;;1.58;1.10;;;;;;;6.54;100.00;92131.56;2086731;28;20036;-85
2022/01/04 00:33:43;;;;;;;1.67;1.58;;;;;;;6.59;100.00;92129.59;2081552;28;20112;-85
2022/01/04 00:34:44;;;;;;;2.35;1.20;;;;;;;6.65;100.00;92122.59;2073419;28;20022;-85
2022/01/04 00:35:45;;;;;;;2.28;1.20;;;;;;;6.80;100.00;92124.53;2073260;28;20026;-84
2022/01/04 00:36:46;;;;;;;2.90;1.20;;;;;;;6.88;100.00;92116.38;2076031;28;20065;-85
2022/01/04 00:37:47;;;;;;;1.48;1.20;;;;;;;6.88;100.00;92113.72;2082501;28;20097;-85
2022/01/04 00:38:48;;;;;;;2.25;1.27;;;;;;;6.94;100.00;92122.69;2084078;28;20021;-84
2022/01/04 00:39:49;;;;;;;1.27;1.13;;;;;;;6.78;100.00;92121.53;2079754;28;20025;-85
2022/01/04 00:40:50;;;;;;;2.17;1.23;;;;;;;6.57;100.00;92117.44;2090875;28;20059;-85
2022/01/04 00:41:51;;;;;;;1.33;1.00;;;;;;;6.51;100.00;92111.16;2074569;28;20025;-84
2022/01/04 00:42:58;;;;;;;2.50;1.30;;;;;;;6.60;100.00;92115.88;2077280;28;20025;-85
2022/01/04 00:43:59;;;;;;;2.28;1.30;;;;;;;6.62;100.00;92102.19;2069283;28;20056;-85
2022/01/04 00:45:03;;;;;;;1.88;1.27;;;;;;;6.64;100.00;92092.66;2068212;28;20026;-85
2022/01/04 00:46:15;;;;;;;1.40;1.13;;;;;;;6.53;100.00;92100.84;2079929;28;20021;-84
2022/01/04 00:47:19;;;;;;;1.48;1.15;;;;;;;6.62;100.00;92091.56;2076328;28;20109;-84
2022/01/04 00:49:27;;;;;;;1.50;1.13;;;;;;;6.58;100.00;92104.91;2081200;28;20025;-84
2022/01/04 00:50:32;;;;;;;1.73;1.33;;;;;;;6.50;100.00;92082.38;2085534;28;20112;-86
2022/01/04 00:51:38;;;;;;;1.83;1.42;;;;;;;6.66;100.00;92095.63;2065248;28;20030;-86
2022/01/04 00:52:43;;;;;;;1.48;1.30;;;;;;;6.77;100.00;92090.81;2074051;28;20030;-86
2022/01/04 00:53:44;;;;;;;1.98;1.20;;;;;;;6.82;100.00;92082.34;2074041;28;20504;-86
2022/01/04 00:54:48;;;;;;;2.05;1.35;;;;;;;6.71;100.00;92083.75;2072999;28;20026;-84
2022/01/04 00:55:49;;;;;;;2.05;1.35;;;;;;;6.56;100.00;92076.13;2073487;28;20030;-86
2022/01/04 00:56:50;;;;;;;2.35;1.20;;;;;;;6.61;100.00;92082.84;2081116;28;20515;-85
2022/01/04 00:57:51;;;;;;;1.50;1.10;;;;;;;6.62;100.00;92068.41;2075268;28;20022;-84
2022/01/04 00:58:53;;;;;;;2.35;1.13;;;;;;;6.56;100.00;92070.09;2072924;28;20344;-85
2022/01/04 00:59:54;;;;;;;1.92;1.25;;;;;;;6.54;100.00;92065.19;2073072;28;20104;-85
2022/01/04 01:00:55;;;;;;;1.80;1.48;;;;;;;6.50;100.00;92061.13;2068010;28;20026;-85
2022/01/04 01:01:56;;;;;;;3.65;1.60;;;;;;;6.77;100.00;92061.59;2078050;28;20104;-85
2022/01/04 01:02:58;;;;;;;3.33;1.45;;;;;;;6.63;100.00;92075.25;2088738;28;20028;-84
2022/01/04 01:03:59;;;;;;;1.40;1.23;;;;;;;6.56;100.00;92064.78;2089094;28;20106;-84
2022/01/04 01:05:00;;;;;;;1.77;1.35;;;;;;;6.52;100.00;92078.13;2081256;28;20059;-84
2022/01/04 01:06:01;;;;;;;1.95;1.50;;;;;;;6.80;100.00;92062.66;2089722;28;20072;-84
2022/01/04 01:07:05;;;;;;;1.77;1.17;;;;;;;6.69;100.00;92062.19;2081268;28;20025;-84
2022/01/04 01:08:10;;;;;;;3.33;1.10;;;;;;;6.53;100.00;92061.03;2074027;28;20018;-85
2022/01/04 01:09:16;;;;;;;2.55;1.50;;;;;;;6.44;100.00;92066.19;2080462;28;20052;-85
2022/01/04 01:11:24;;;;;;;1.48;1.10;;;;;;;6.57;100.00;92055.63;2082016;28;20474;-85
2022/01/04 01:12:25;;;;;;;2.90;1.45;;;;;;;6.71;100.00;92039.34;2081500;28;20021;-84
2022/01/04 01:13:26;;;;;;;2.50;1.50;;;;;;;6.71;100.00;92042.00;2073402;28;20522;-84
2022/01/04 01:14:32;;;;;;;2.03;1.83;;;;;;;6.73;100.00;92038.97;2081393;28;20033;-84
2022/01/04 01:15:34;;;;;;;2.47;1.55;;;;;;;6.79;100.00;92024.75;2058384;28;20058;-85
2022/01/04 01:16:35;;;;;;;2.75;1.50;;;;;;;6.93;100.00;92028.94;2057284;28;20073;-84
2022/01/04 01:17:43;;;;;;;2.05;1.30;;;;;;;6.89;100.00;92020.34;2065765;28;20437;-84
2022/01/04 01:18:47;;;;;;;1.83;1.40;;;;;;;6.85;100.00;92026.88;2083646;28;20457;-86
2022/01/04 01:19:48;;;;;;;2.42;1.50;;;;;;;6.77;100.00;92011.16;2073512;28;20037;-86
2022/01/04 01:20:50;;;;;;;1.98;1.40;;;;;;;6.84;100.00;92017.44;2064865;28;20029;-85
2022/01/04 01:21:51;;;;;;;2.88;1.85;;;;;;;6.65;100.00;92016.41;2073387;28;20117;-85
2022/01/04 01:22:52;;;;;;;1.75;1.50;;;;;;;6.66;100.00;92018.63;2081121;28;20429;-86
2022/01/04 01:23:53;;;;;;;3.92;1.77;;;;;;;6.76;100.00;92028.25;2081195;28;20049;-87
2022/01/04 01:24:57;;;;;;;2.85;1.65;;;;;;;6.56;100.00;92009.03;2073156;28;20112;-87
2022/01/04 01:26:03;;;;;;;2.00;1.58;;;;;;;6.70;100.00;92024.59;2073732;28;20479;-84
2022/01/04 01:27:08;;;;;;;2.13;1.35;;;;;;;6.64;100.00;92023.63;2072962;28;20125;-83
2022/01/04 01:28:11;;;;;;;1.77;1.50;;;;;;;6.68;100.00;92034.16;2073703;28;20116;-87
2022/01/04 01:29:12;;;;;;;5.07;1.58;;;;;;;6.66;100.00;92023.19;2074366;28;20049;-84
2022/01/04 01:30:14;;;;;;;2.08;1.40;;;;;;;6.79;100.00;92034.63;2073043;28;20061;-84
2022/01/04 01:31:15;;;;;;;2.92;1.60;;;;;;;7.04;100.00;92028.69;2073240;28;20124;-84
2022/01/04 01:32:16;;;;;;;2.65;1.27;;;;;;;6.97;100.00;92028.84;2079409;28;20021;-85
2022/01/04 01:33:19;;;;;;;2.38;1.40;;;;;;;6.90;100.00;92027.16;2057131;28;20511;-85
2022/01/04 01:34:20;;;;;;;3.55;1.60;;;;;;;6.78;100.00;92022.50;2064957;28;20036;-83
2022/01/04 01:35:21;;;;;;;6.05;1.48;;;;;;;6.86;100.00;92007.91;2073141;28;20113;-84
2022/01/04 01:36:24;;;;;;;4.10;1.75;;;;;;;6.93;100.00;92017.56;2081222;28;20467;-84
2022/01/04 01:37:25;;;;;;;2.92;1.50;;;;;;;6.87;100.00;92005.97;2070526;28;20116;-86
2022/01/04 01:38:31;;;;;;;2.47;1.67;;;;;;;6.87;100.00;92013.94;2081152;28;20033;-85
2022/01/04 01:39:35;;;;;;;2.75;2.42;;;;;;;6.64;100.00;92004.28;2077182;28;20474;-85
2022/01/04 01:40:37;;;;;;;4.15;1.90;;;;;;;6.68;100.00;92002.28;2057618;28;20142;-86
2022/01/04 01:41:38;;;;;;;3.40;1.98;;;;;;;6.52;100.00;91981.81;2077590;28;20057;-85
2022/01/04 01:42:40;;;;;;;3.08;2.40;;;;;;;6.81;100.00;91982.59;2080548;28;20491;-86
2022/01/04 01:43:41;;;;;;;2.83;1.80;;;;;;;6.67;100.00;91995.47;2072954;28;20140;-87
2022/01/04 01:44:42;;;;;;;3.00;1.70;;;;;;;6.68;100.00;91981.78;2069831;28;20094;-86
2022/01/04 01:45:43;;;;;;;2.53;1.80;;;;;;;6.74;100.00;91988.06;2077024;28;20021;-86
2022/01/04 01:46:44;;;;;;;4.32;1.80;;;;;;;6.82;100.00;91986.72;2075448;28;20400;-86
2022/01/04 01:47:45;;;;;;;2.63;1.80;;;;;;;6.96;100.00;91988.25;2086548;28;20079;-85
2022/01/04 01:48:46;;;;;;;4.22;2.10;;;;;;;6.90;100.00;91976.69;2073098;28;20502;-84
2022/01/04 01:49:47;;;;;;;3.20;1.85;;;;;;;6.84;100.00;91975.69;2072796;28;20049;-86
2022/01/04 01:50:48;;;;;;;3.88;1.70;;;;;;;6.98;100.00;91970.00;2072662;28;20025;-85
2022/01/04 01:51:49;;;;;;;4.10;2.10;;;;;;;7.23;100.00;91974.63;2080857;28;20056;-84
2022/01/04 01:52:52;;;;;;;3.28;2.10;;;;;;;7.14;100.00;91963.88;2087204;28;20315;-85
2022/01/04 01:53:53;;;;;;;2.25;1.70;;;;;;;6.97;100.00;91962.44;2085043;28;20017;-83
2022/01/04 01:54:56;;;;;;;3.22;1.77;;;;;;;7.03;100.00;91961.53;2082188;28;20026;-85
2022/01/04 01:55:57;;;;;;;2.55;1.90;;;;;;;7.16;100.00;91955.50;2072613;28;20048;-84
2022/01/04 01:56:58;;;;;;;5.22;1.98;;;;;;;6.93;100.00;91959.13;2064572;28;20026;-85
2022/01/04 01:57:59;;;;;;;2.25;1.70;;;;;;;7.18;100.00;91951.25;2080398;28;20132;-85
2022/01/04 01:59:08;;;;;;;2.45;1.90;;;;;;;6.96;100.00;91961.69;2080074;28;20029;-84
2022/01/04 02:00:12;;;;;;;2.22;2.03;;;;;;;6.88;100.00;91947.13;2081482;28;20060;-85
2022/01/04 02:01:14;;;;;;;2.80;1.92;;;;;;;6.84;100.00;91935.84;2066139;28;20022;-86
2022/01/04 02:02:17;;;;;;;3.25;1.90;;;;;;;6.93;100.00;91937.88;2076867;28;20064;-85
2022/01/04 02:03:19;;;;;;;3.60;1.83;;;;;;;6.87;100.00;91934.28;2071432;28;20026;-86
2022/01/04 02:04:20;;;;;;;3.55;1.80;;;;;;;6.86;100.00;91925.56;2064595;28;20058;-86
2022/01/04 02:05:21;;;;;;;2.13;1.92;;;;;;;6.73;100.00;91914.16;2076812;28;20494;-84
2022/01/04 02:06:24;;;;;;;5.57;2.10;;;;;;;6.94;100.00;91904.88;2078337;28;20025;-86
2022/01/04 02:07:26;;;;;;;2.78;1.83;;;;;;;7.03;100.00;91905.00;2078075;28;21773;-84
2022/01/04 02:10:05;;;;;;;;;;;;;;;6.74;100.00;91907.66;2139823;27;20193;-84
2022/01/04 02:11:08;;;;;;;2.17;1.65;;;;;;;6.87;100.00;91894.44;2121609;28;19911;-85
2022/01/04 02:12:10;;;;;;;2.35;1.75;;;;;;;7.17;100.00;91893.22;2120914;28;20080;-85
2022/01/04 02:13:11;;;;;;;2.00;1.80;;;;;;;7.16;100.00;91887.16;2096955;28;20203;-85
2022/01/04 02:14:12;;;;;;;1.60;1.50;;;;;;;7.03;100.00;91900.41;2096254;28;20176;-83
2022/01/04 02:15:24;;;;;;;2.80;1.63;;;;;;;6.93;100.00;91901.44;2096181;28;20092;-84
2022/01/04 02:16:27;;;;;;;3.13;1.38;;;;;;;6.89;100.00;91897.41;2107951;28;20028;-83
2022/01/04 02:17:28;;;;;;;2.53;1.50;;;;;;;6.98;100.00;91887.66;2112884;28;20054;-84
2022/01/04 02:18:29;;;;;;;1.42;1.30;;;;;;;7.07;100.00;91893.09;2116292;28;20020;-85
2022/01/04 02:19:34;;;;;;;2.83;1.83;;;;;;;6.87;100.00;91897.09;2108561;28;20024;-85
2022/01/04 02:20:36;;;;;;;3.42;1.73;;;;;;;7.06;100.00;91880.22;2109590;27;20381;-84
2022/01/04 02:21:37;;;;;;;3.55;1.77;;;;;;;6.99;100.00;91873.19;2116906;28;20030;-86
2022/01/04 02:22:39;;;;;;;1.83;1.30;;;;;;;7.23;100.00;91876.31;2104605;28;20103;-86
2022/01/04 02:23:41;;;;;;;2.42;1.42;;;;;;;7.06;100.00;91880.94;2100337;28;20036;-85
2022/01/04 02:24:42;;;;;;;2.25;1.45;;;;;;;7.34;100.00;91885.88;2105211;28;20028;-87
2022/01/04 02:25:43;;;;;;;2.08;1.48;;;;;;;7.40;100.00;91854.94;2113128;28;20481;-84
2022/01/04 02:26:44;;;;;;;2.10;1.63;;;;;;;7.27;100.00;91868.22;2104291;28;20028;-85
2022/01/04 02:27:46;;;;;;;2.55;1.45;;;;;;;7.26;100.00;91875.47;2096328;28;20031;-84
2022/01/04 02:28:48;;;;;;;3.35;1.42;;;;;;;7.27;100.00;91865.56;2104633;28;20032;-85
2022/01/04 02:29:50;;;;;;;2.60;1.30;;;;;;;7.32;100.00;91865.78;2096284;28;20099;-87
2022/01/04 02:30:50;;;;;;;1.50;1.40;;;;;;;7.10;100.00;91853.53;2102616;28;20091;-83
2022/01/04 02:31:51;;;;;;;1.70;1.20;;;;;;;7.03;100.00;91857.91;2104464;28;20388;-86
2022/01/04 02:32:53;;;;;;;1.55;1.42;;;;;;;7.02;100.00;91845.03;2104476;28;20020;-85
2022/01/04 02:33:54;;;;;;;3.25;1.58;;;;;;;7.00;100.00;91866.72;2112942;28;20161;-84
2022/01/04 02:34:55;;;;;;;2.70;1.55;;;;;;;6.86;100.00;91853.84;2112943;28;20027;-86
2022/01/04 02:35:56;;;;;;;1.58;1.40;;;;;;;7.22;100.00;91855.47;2104906;28;20024;-86
2022/01/04 02:36:58;;;;;;;2.83;1.30;;;;;;;7.26;100.00;91856.84;2109367;28;20016;-85
2022/01/04 02:38:00;;;;;;;2.55;1.20;;;;;;;7.09;100.00;91860.03;2120573;27;20141;-85
2022/01/04 02:39:01;;;;;;;1.60;1.25;;;;;;;7.16;100.00;91862.50;2109006;28;20463;-85
2022/01/04 02:40:05;;;;;;;1.60;1.30;;;;;;;7.06;100.00;91864.28;2108302;28;20030;-88
2022/01/04 02:41:06;;;;;;;3.38;1.48;;;;;;;7.06;100.00;91856.31;2105456;27;20385;-84
2022/01/04 02:42:09;;;;;;;1.40;1.30;;;;;;;6.90;100.00;91853.75;2112639;28;20032;-85
2022/01/04 02:43:12;;;;;;;2.03;1.35;;;;;;;6.88;100.00;91864.78;2100778;28;20017;-85
2022/01/04 02:44:17;;;;;;;1.35;1.25;;;;;;;7.00;100.00;91863.31;2097940;28;20029;-86
2022/01/04 02:45:18;;;;;;;1.77;1.67;;;;;;;6.89;100.00;91847.69;2113416;28;20023;-86
2022/01/04 02:46:19;;;;;;;2.63;1.33;;;;;;;7.19;100.00;91854.41;2104553;28;20028;-86
2022/01/04 02:47:22;;;;;;;1.55;1.08;;;;;;;7.49;100.00;91847.81;2104603;28;20031;-87
2022/01/04 02:48:23;;;;;;;2.75;1.40;;;;;;;7.31;100.00;91835.06;2096706;28;20132;-85
2022/01/04 02:49:24;;;;;;;1.42;1.30;;;;;;;7.50;100.00;91837.91;2098681;28;20027;-85
2022/01/04 02:50:26;;;;;;;2.03;1.38;;;;;;;7.45;100.00;91839.19;2101779;28;20043;-86
2022/01/04 02:51:30;;;;;;;1.92;1.20;;;;;;;7.43;100.00;91833.56;2099568;28;20119;-87
2022/01/04 02:52:32;;;;;;;2.17;1.30;;;;;;;7.44;100.00;91845.69;2104628;28;20024;-86
2022/01/04 02:53:37;;;;;;;2.42;1.40;;;;;;;7.40;100.00;91844.31;2096295;28;20517;-85
2022/01/04 02:54:38;;;;;;;2.03;1.38;;;;;;;7.60;100.00;91846.75;2104983;28;20017;-86
2022/01/04 02:55:41;;;;;;;3.75;1.33;;;;;;;7.53;100.00;91845.78;2104411;28;20531;-84
2022/01/04 02:56:44;;;;;;;2.17;1.30;;;;;;;7.64;100.00;91855.34;2113047;28;20046;-84
2022/01/04 02:57:45;;;;;;;1.65;1.25;;;;;;;7.53;100.00;91845.03;2110222;28;20019;-85
2022/01/04 02:58:47;;;;;;;2.63;1.33;;;;;;;7.38;100.00;91846.66;2112683;28;20190;-85
2022/01/04 02:59:47;;;;;;;1.25;1.15;;;;;;;7.47;100.00;91842.19;2097677;28;20025;-85
2022/01/04 03:00:49;;;;;;;1.17;1.08;;;;;;;7.34;100.00;91840.72;2104252;28;20028;-86
2022/01/04 03:01:50;;;;;;;2.22;1.15;;;;;;;7.35;100.00;91840.28;2104341;28;20582;-85
2022/01/04 03:02:52;;;;;;;1.92;1.30;;;;;;;7.17;100.00;91832.09;2104281;28;20485;-86
2022/01/04 03:03:53;;;;;;;3.70;1.30;;;;;;;7.28;100.00;91825.28;2110634;28;20020;-85
2022/01/04 03:04:54;;;;;;;1.75;1.00;;;;;;;7.19;100.00;91819.84;2102504;28;20182;-84
2022/01/04 03:05:55;;;;;;;1.67;1.20;;;;;;;7.15;100.00;91818.47;2095888;28;20108;-85
2022/01/04 03:06:56;;;;;;;1.88;1.10;;;;;;;7.16;100.00;91823.38;2112622;28;20089;-86
2022/01/04 03:07:57;;;;;;;2.35;1.30;;;;;;;7.07;100.00;91810.72;2111366;28;20016;-86
2022/01/04 03:08:58;;;;;;;1.58;1.10;;;;;;;7.24;100.00;91814.03;2112639;27;20477;-86
2022/01/04 03:09:59;;;;;;;1.75;1.30;;;;;;;7.26;100.00;91818.91;2120809;28;20047;-85
2022/01/04 03:11:01;;;;;;;1.83;1.27;;;;;;;7.32;100.00;91809.22;2112060;28;20043;-84
2022/01/04 03:12:02;;;;;;;3.10;1.30;;;;;;;7.21;100.00;91819.44;2104210;28;20028;-84
2022/01/04 03:13:05;;;;;;;1.35;1.25;;;;;;;7.05;100.00;91797.09;2099569;28;20024;-86
2022/01/04 03:14:06;;;;;;;2.97;1.00;;;;;;;7.10;100.00;91798.50;2096156;28;20025;-85
2022/01/04 03:15:07;;;;;;;1.45;1.17;;;;;;;7.04;100.00;91803.59;2095763;28;20025;-84
2022/01/04 03:16:08;;;;;;;3.53;1.10;;;;;;;7.05;100.00;91786.47;2095811;28;20028;-85
2022/01/04 03:17:09;;;;;;;2.42;0.90;;;;;;;7.23;100.00;91799.22;2095103;28;20106;-85
2022/01/04 03:18:10;;;;;;;1.83;1.20;;;;;;;7.37;100.00;91792.72;2088166;28;20434;-84
2022/01/04 03:19:11;;;;;;;1.20;1.10;;;;;;;7.50;100.00;91796.09;2095889;28;20079;-86
2022/01/04 03:20:12;;;;;;;1.67;1.15;;;;;;;7.50;100.00;91792.72;2095805;28;20025;-85
2022/01/04 03:21:13;;;;;;;1.35;1.23;;;;;;;7.30;100.00;91798.28;2090966;28;20028;-84
2022/01/04 03:22:24;;;;;;;1.20;1.00;;;;;;;7.32;100.00;91793.28;2082038;28;20017;-86
2022/01/04 03:23:25;;;;;;;1.38;1.20;;;;;;;7.32;100.00;91788.69;2087495;28;20928;-85
2022/01/04 03:24:26;;;;;;;2.03;1.20;;;;;;;7.43;100.00;91788.38;2090117;28;20017;-84
2022/01/04 03:25:27;;;;;;;1.13;0.95;;;;;;;7.27;100.00;91794.56;2098379;28;20094;-85
2022/01/04 03:26:29;;;;;;;1.70;1.48;;;;;;;7.14;100.00;91779.78;2095455;28;20713;-85
2022/01/04 03:27:30;;;;;;;1.13;1.00;;;;;;;7.26;100.00;91785.09;2101811;28;20447;-86
2022/01/04 03:28:31;;;;;;;2.58;1.20;;;;;;;7.25;100.00;91765.00;2110524;28;20027;-85
2022/01/04 03:29:32;;;;;;;1.27;0.95;;;;;;;7.37;100.00;91768.06;2111285;28;20524;-85
2022/01/04 03:30:33;;;;;;;1.38;0.95;;;;;;;7.22;100.00;91779.16;2102383;28;20027;-85
2022/01/04 03:31:35;;;;;;;1.10;0.95;;;;;;;7.16;100.00;91777.47;2098666;28;20748;-85
2022/01/04 03:32:37;;;;;;;1.58;1.20;;;;;;;7.43;100.00;91772.44;2090509;28;20032;-86
2022/01/04 03:33:38;;;;;;;2.03;0.98;;;;;;;7.63;100.00;91785.44;2098806;28;20051;-84
2022/01/04 03:34:39;;;;;;;2.35;1.45;;;;;;;7.56;100.00;91777.72;2098459;28;20233;-86
2022/01/04 03:35:40;;;;;;;1.90;1.08;;;;;;;7.69;100.00;91777.69;2081795;28;20037;-85
2022/01/04 03:36:42;;;;;;;1.88;0.98;;;;;;;7.60;100.00;91774.97;2090176;28;20044;-85
2022/01/04 03:37:43;;;;;;;1.25;1.00;;;;;;;7.60;100.00;91769.63;2095270;28;20025;-85
2022/01/04 03:38:44;;;;;;;3.42;1.02;;;;;;;7.35;100.00;91771.16;2090321;28;20021;-86
2022/01/04 03:39:45;;;;;;;2.03;1.20;;;;;;;7.29;100.00;91767.56;2082063;28;20021;-85
2022/01/04 03:40:47;;;;;;;1.25;1.15;;;;;;;7.31;100.00;91760.63;2090121;28;20055;-84
2022/01/04 03:41:50;;;;;;;1.23;1.02;;;;;;;7.43;100.00;91764.44;2088192;28;20151;-86
2022/01/04 03:42:52;;;;;;;4.72;1.00;;;;;;;7.38;100.00;91770.31;2084150;28;20499;-86
2022/01/04 03:43:54;;;;;;;2.00;1.02;;;;;;;7.42;100.00;91759.53;2096808;28;20025;-85
2022/01/04 03:44:54;;;;;;;1.42;1.33;;;;;;;7.49;100.00;91757.41;2099526;28;20027;-85
2022/01/04 03:45:55;;;;;;;2.63;1.25;;;;;;;7.27;100.00;91753.94;2103958;28;20436;-86
2022/01/04 03:46:56;;;;;;;1.95;1.00;;;;;;;7.30;100.00;91758.41;2099180;28;20055;-85
2022/01/04 03:47:57;;;;;;;4.20;1.35;;;;;;;7.49;100.00;91738.78;2088984;28;20454;-85
2022/01/04 03:48:58;;;;;;;2.65;1.17;;;;;;;7.63;100.00;91731.53;2089929;28;20048;-84
2022/01/04 03:49:59;;;;;;;1.30;0.95;;;;;;;7.57;100.00;91737.41;2089108;28;20024;-84
2022/01/04 03:51:01;;;;;;;3.22;1.13;;;;;;;7.33;100.00;91741.59;2089825;28;20017;-84
2022/01/04 03:52:04;;;;;;;1.00;0.90;;;;;;;7.36;100.00;91740.00;2098665;28;20103;-86
2022/01/04 03:53:08;;;;;;;2.17;1.30;;;;;;;7.38;100.00;91735.75;2098429;28;20028;-87
2022/01/04 03:54:11;;;;;;;1.48;1.00;;;;;;;7.55;100.00;91750.41;2106342;28;20056;-86
2022/01/04 03:55:12;;;;;;;1.00;0.90;;;;;;;7.43;100.00;91735.22;2098697;28;20030;-85
2022/01/04 03:56:13;;;;;;;2.05;1.10;;;;;;;7.41;100.00;91728.81;2106473;28;20023;-85
2022/01/04 03:57:14;;;;;;;5.45;1.10;;;;;;;7.46;100.00;91723.72;2098142;28;20017;-86
2022/01/04 03:58:15;;;;;;;0.90;0.88;;;;;;;7.34;100.00;91721.84;2104967;28;20034;-84
2022/01/04 03:59:16;;;;;;;1.15;0.80;;;;;;;7.48;100.00;91728.59;2091472;28;20032;-86
2022/01/04 04:00:17;;;;;;;1.52;1.08;;;;;;;7.29;100.00;91725.78;2098235;28;20032;-87
2022/01/04 04:01:18;;;;;;;2.92;0.90;;;;;;;7.25;100.00;91719.09;2098129;28;20152;-84
2022/01/04 04:02:19;;;;;;;0.90;0.90;;;;;;;7.18;100.00;91712.06;2106526;28;20428;-86
2022/01/04 04:03:21;;;;;;;1.58;0.95;;;;;;;7.49;100.00;91717.53;2106233;28;20019;-85
2022/01/04 04:04:26;;;;;;;1.73;1.00;;;;;;;7.45;100.00;91716.16;2089927;28;20036;-84
2022/01/04 04:05:27;;;;;;;1.55;0.70;;;;;;;7.26;100.00;91707.28;2098413;28;20025;-86
2022/01/04 04:06:29;;;;;;;0.88;0.70;;;;;;;7.21;100.00;91716.53;2089840;28;20016;-85
2022/01/04 04:07:30;;;;;;;0.90;0.90;;;;;;;7.39;100.00;91721.28;2093388;28;20029;-85
2022/01/04 04:08:34;;;;;;;2.50;0.80;;;;;;;7.35;100.00;91718.00;2098044;28;20051;-87
2022/01/04 04:09:36;;;;;;;2.25;0.85;;;;;;;7.36;100.00;91718.75;2090160;28;20045;-85
2022/01/04 04:10:37;;;;;;;1.50;1.20;;;;;;;7.31;100.00;91710.13;2089805;28;20108;-85
2022/01/04 04:11:38;;;;;;;1.10;0.77;;;;;;;7.39;100.00;91723.94;2081593;28;20029;-84
2022/01/04 04:12:39;;;;;;;2.15;0.80;;;;;;;7.33;100.00;91717.66;2081532;28;20029;-84
2022/01/04 04:13:42;;;;;;;0.50;0.50;;;;;;;7.25;100.00;91706.53;2094624;28;20111;-86
2022/01/04 04:14:43;;;;;;;1.15;0.70;;;;;;;7.37;100.00;91707.66;2098041;28;20074;-85
2022/01/04 04:15:44;;;;;;;1.35;0.60;;;;;;;7.43;100.00;91700.66;2081606;28;20029;-87
2022/01/04 04:16:45;;;;;;;0.90;0.60;;;;;;;7.36;100.00;91698.22;2089647;28;20089;-85
2022/01/04 04:17:46;;;;;;;1.05;0.68;;;;;;;7.13;100.00;91693.28;2089587;28;20458;-86
2022/01/04 04:18:50;;;;;;;0.73;0.70;;;;;;;7.23;100.00;91692.94;2102164;28;20030;-85
2022/01/04 04:19:51;;;;;;;0.80;0.70;;;;;;;7.29;100.00;91690.50;2096304;28;20066;-85
2022/01/04 04:20:58;;;;;;;0.80;0.68;;;;;;;7.40;100.00;91688.22;2089618;28;20021;-86
2022/01/04 04:22:05;;;;;;;2.83;2.63;;;;;;;7.23;100.00;91674.31;2102132;28;20859;-85
2022/01/04 04:23:07;;;;;;;1.77;1.50;;;;;;;7.37;100.00;91678.44;2113691;28;20019;-85
2022/01/04 04:24:08;;;;;;;1.25;0.90;;;;;;;7.15;100.00;91673.06;2090020;28;20029;-85
2022/01/04 04:25:12;;;;;;;0.70;0.68;;;;;;;7.24;100.00;91678.50;2090728;28;20741;-86
2022/01/04 04:26:18;;;;;;;1.98;0.70;;;;;;;7.24;100.00;91683.03;2105415;28;20176;-85
2022/01/04 04:27:22;;;;;;;1.25;0.68;;;;;;;7.31;100.00;91683.56;2097497;28;20043;-84
2022/01/04 04:28:23;;;;;;;0.98;0.70;;;;;;;7.14;100.00;91681.47;2100679;28;20433;-85
2022/01/04 04:29:24;;;;;;;2.80;0.65;;;;;;;7.12;100.00;91689.16;2097954;28;20032;-85
2022/01/04 04:30:26;;;;;;;0.77;0.63;;;;;;;7.03;100.00;91685.22;2097778;28;20023;-85
2022/01/04 04:31:27;;;;;;;0.60;0.60;;;;;;;7.18;100.00;91682.09;2101984;28;20754;-85
2022/01/04 04:32:27;;;;;;;0.80;0.60;;;;;;;7.07;100.00;91683.19;2096218;28;20024;-84
2022/01/04 04:33:32;;;;;;;0.82;0.60;;;;;;;7.28;100.00;91686.31;2086045;28;20033;-85
2022/01/04 04:34:42;;;;;;;0.90;0.57;;;;;;;7.49;100.00;91667.03;2082250;28;20716;-85
2022/01/04 04:35:43;;;;;;;1.10;0.80;;;;;;;7.54;100.00;91671.78;2100974;28;20407;-84
2022/01/04 04:36:44;;;;;;;0.60;0.60;;;;;;;7.55;100.00;91657.34;2097564;28;20039;-86
2022/01/04 04:37:45;;;;;;;1.60;0.90;;;;;;;7.51;100.00;91670.00;2089661;28;20059;-88
2022/01/04 04:38:46;;;;;;;0.60;0.60;;;;;;;7.37;100.00;91667.06;2081482;28;20029;-86
2022/01/04 04:39:51;;;;;;;0.85;0.70;;;;;;;7.48;100.00;91668.19;2087019;28;20021;-86
2022/01/04 04:40:59;;;;;;;1.48;1.20;;;;;;;7.40;100.00;91668.88;2090928;28;20696;-85
2022/01/04 04:42:09;;;;;;;1.45;0.90;;;;;;;7.46;100.00;91659.94;2091322;28;20594;-86
2022/01/04 04:43:10;;;;;;;0.85;0.75;;;;;;;7.50;100.00;91673.06;2096624;28;20384;-85
2022/01/04 04:44:11;;;;;;;3.40;0.80;;;;;;;7.40;100.00;91655.56;2106154;28;20074;-85
2022/01/04 04:45:12;;;;;;;3.72;0.80;;;;;;;7.33;100.00;91661.84;2097029;28;20021;-86
2022/01/04 04:46:12;;;;;;;1.33;0.60;;;;;;;7.35;100.00;91664.84;2090284;28;20078;-84
2022/01/04 04:47:13;;;;;;;0.60;0.60;;;;;;;7.32;100.00;91665.69;2097810;28;20106;-85
2022/01/04 04:48:14;;;;;;;3.30;2.65;;;;;;;7.21;100.00;91658.09;2089572;28;20104;-86
2022/01/04 04:49:16;;;;;;;3.95;2.65;;;;;;;7.46;100.00;91683.84;2089421;28;20033;-85
2022/01/04 04:50:17;;;;;;;2.38;1.10;;;;;;;7.50;100.00;91667.75;2089662;28;20020;-84
2022/01/04 04:51:18;;;;;;;1.33;0.80;;;;;;;7.53;100.00;91664.97;2089781;28;20116;-85
2022/01/04 04:52:20;;;;;;;1.13;0.70;;;;;;;7.73;100.00;91663.97;2082960;28;20029;-85
2022/01/04 04:53:21;;;;;;;2.03;0.73;;;;;;;7.63;100.00;91671.09;2097976;28;20059;-89
2022/01/04 04:54:22;;;;;;;1.48;0.90;;;;;;;7.58;100.00;91667.09;2103845;28;20046;-85
2022/01/04 04:55:30;;;;;;;2.25;1.52;;;;;;;7.43;100.00;91670.66;2097559;28;20682;-85
2022/01/04 04:56:38;;;;;;;0.65;0.60;;;;;;;7.38;100.00;91669.31;2103633;28;20600;-85
2022/01/04 04:57:39;;;;;;;1.90;0.60;;;;;;;7.52;100.00;91660.84;2098213;28;20030;-86
2022/01/04 04:58:42;;;;;;;1.13;0.80;;;;;;;7.88;100.00;91672.19;2097697;28;20028;-84